Date,TemperatureHighF,TemperatureAvgF,TemperatureLowF,DewpointHighF,DewpointAvgF,DewpointLowF,HumidityHigh,HumidityAvg,HumidityLow,PressureMaxIn,PressureMinIn,WindSpeedMaxMPH,WindSpeedAvgMPH,GustSpeedMaxMPH,PrecipitationSumIn
2013-1-1,36.1,34.5,30.3,29.0,27.1,23.0,76,74,74,30.23,30.08,10,2,0,0.59
2013-1-2,30.2,28.4,25.9,23.0,21.1,19.0,84,74,73,30.32,30.23,10,1,0,0.01
2013-1-3,37.8,32.0,26.4,29.0,25.9,22.0,83,78,70,30.48,30.31,14,4,0,0.00
2013-1-4,40.3,35.3,29.9,29.0,24.5,19.0,81,66,49,30.52,30.39,8,1,0,0.00
2013-1-5,44.4,38.4,35.4,34.0,28.8,19.0,82,69,48,30.39,30.24,11,2,0,0.00
2013-1-6,46.5,39.4,34.5,33.0,28.6,25.0,83,67,47,30.39,30.25,22,4,0,0.00
2013-1-7,42.7,37.0,32.3,29.0,26.4,24.0,80,66,56,30.41,30.19,12,2,0,0.00
2013-1-8,47.7,41.6,35.3,38.0,33.6,26.0,81,73,62,30.24,30.13,14,5,0,0.00
2013-1-9,49.4,46.7,42.9,43.0,37.9,34.0,79,72,68,30.33,30.20,33,16,0,0.10
2013-1-10,56.8,50.1,45.9,47.0,41.6,37.0,74,73,71,30.20,29.86,30,9,0,0.14
2013-1-11,59.8,51.4,44.5,49.0,43.3,35.0,80,74,63,29.95,29.85,13,4,0,0.00
2013-1-12,57.8,52.2,32.7,50.0,43.2,25.0,80,72,66,29.89,29.67,18,3,0,5.00
2013-1-13,33.3,30.1,22.5,29.0,23.7,18.0,84,77,72,30.34,29.83,18,7,0,0.01
2013-1-14,30.3,23.2,17.8,22.0,16.9,13.0,85,77,66,30.46,30.31,19,10,0,0.00
2013-1-15,27.2,23.5,20.9,21.0,16.5,13.0,84,74,67,30.39,30.18,15,8,0,0.00
2013-1-16,39.1,31.6,25.0,22.0,17.5,11.0,84,58,32,30.27,30.16,14,5,0,0.01
2013-1-17,46.7,39.8,34.4,33.0,26.0,18.0,66,58,50,30.51,30.22,20,6,0,0.00
2013-1-18,49.6,41.1,34.1,32.0,26.9,24.0,71,58,43,30.55,30.28,21,4,0,0.00
2013-1-19,57.9,47.6,40.2,39.0,32.5,23.0,67,56,48,30.28,30.14,11,2,0,0.00
2013-1-20,51.8,47.8,42.6,40.0,33.8,30.0,75,59,48,30.27,30.14,20,5,0,0.00
2013-1-21,42.0,34.6,27.7,33.0,19.5,10.0,75,55,39,30.35,30.18,13,6,0,0.00
2013-1-22,33.0,28.9,23.8,25.0,18.9,15.0,77,66,59,30.42,30.32,14,4,0,0.00
2013-1-23,55.9,45.4,32.9,48.0,35.3,25.0,78,68,52,30.34,30.20,11,2,0,0.00
2013-1-24,55.7,34.9,24.8,49.0,26.1,18.0,83,71,55,30.34,30.17,28,14,0,0.00
2013-1-25,44.0,35.4,24.6,38.0,28.7,17.0,83,77,70,30.28,30.14,9,2,0,0.01
2013-1-26,43.7,41.2,37.7,37.0,28.9,26.0,79,62,50,30.32,30.22,24,10,0,0.00
2013-1-27,57.5,46.8,39.0,46.0,38.0,30.0,81,72,66,30.23,30.05,12,4,0,0.01
2013-1-28,63.5,61.0,57.4,54.0,50.4,46.0,72,68,65,30.06,29.91,17,5,0,7.78
2013-1-29,63.3,58.9,48.8,53.0,48.2,39.0,80,68,64,29.90,29.45,21,6,0,1.97
2013-1-30,48.8,36.7,29.0,43.0,30.3,23.0,82,78,69,30.07,29.48,28,7,0,0.00
2013-1-31,52.5,37.6,25.2,33.0,24.6,9.0,79,61,39,30.38,30.05,14,4,0,0.00
2013-2-1,32.2,25.7,18.1,18.0,10.9,4.0,68,54,43,30.50,30.29,14,5,0,0.00
2013-2-2,52.6,41.5,28.8,32.0,27.1,18.0,70,58,45,30.29,30.23,14,2,0,0.00
2013-2-3,51.9,47.2,40.9,32.0,25.9,20.0,63,45,32,30.28,30.05,15,4,0,0.00
2013-2-4,48.8,45.1,40.4,43.0,34.2,25.0,80,67,41,30.04,29.87,16,3,0,0.00
2013-2-5,59.5,52.6,46.5,50.0,42.9,36.0,79,70,55,30.06,29.94,7,2,0,0.01
2013-2-6,53.0,47.1,41.4,46.0,38.2,32.0,80,72,52,30.15,30.03,22,8,0,0.01
2013-2-7,54.4,49.8,44.3,47.0,40.5,36.0,81,71,65,30.02,29.89,12,3,0,0.51
2013-2-8,47.7,41.6,34.3,38.0,33.8,25.0,81,74,66,30.26,29.99,20,7,0,0.00
2013-2-9,37.9,32.9,29.2,29.0,24.3,21.0,72,70,69,30.29,29.99,23,10,0,0.10
2013-2-10,61.8,52.0,37.8,52.0,35.9,26.0,79,57,26,30.00,29.75,13,2,0,0.60
2013-2-11,51.9,45.2,38.5,31.0,27.0,23.0,59,50,37,30.18,30.00,16,3,0,0.00
2013-2-12,46.8,38.6,32.2,33.0,28.4,24.0,80,67,52,30.14,29.86,30,10,0,0.10
2013-2-13,45.8,38.2,32.7,38.0,30.3,25.0,82,73,68,30.08,29.92,14,4,0,0.08
2013-2-14,58.2,49.3,41.1,37.0,31.8,27.0,74,52,37,30.10,30.01,11,3,0,0.00
2013-2-15,45.6,38.2,29.9,33.0,25.0,15.0,79,60,47,30.30,30.10,16,6,0,0.01
2013-2-16,37.6,31.9,25.4,21.0,16.2,12.0,81,54,40,30.35,30.22,18,4,0,0.00
2013-2-17,57.8,44.9,33.1,36.0,23.8,12.0,56,44,37,30.21,29.95,19,6,0,0.00
2013-2-18,53.6,48.5,38.2,46.0,39.6,31.0,79,72,57,30.02,29.65,27,8,0,0.05
2013-2-19,45.4,37.6,29.8,31.0,21.1,17.0,77,53,39,30.31,30.03,21,4,0,0.00
2013-2-20,37.1,27.7,23.2,21.0,16.2,13.0,80,63,42,30.32,30.14,21,8,0,0.00
2013-2-21,32.2,27.9,24.4,24.0,19.5,17.0,72,71,70,30.15,29.79,18,1,0,0.00
2013-2-22,32.1,28.7,23.7,24.0,20.7,16.0,77,72,70,30.15,29.93,0,0,0,0.51
2013-2-23,40.9,33.9,25.6,33.0,25.1,19.0,81,70,57,30.13,30.00,12,1,0,0.22
2013-2-24,48.5,40.4,33.5,35.0,31.4,26.0,80,71,58,30.07,29.87,25,9,0,0.00
2013-2-25,44.2,40.2,38.5,36.0,31.3,29.0,83,71,65,29.88,29.40,34,18,0,0.52
2013-2-26,39.0,33.9,31.5,31.0,26.6,24.0,81,75,70,29.89,29.35,18,6,0,0.01
2013-2-27,39.9,34.3,30.9,32.0,27.9,23.0,81,77,70,30.08,29.88,23,5,0,0.01
2013-2-28,43.4,34.2,29.0,29.0,26.3,24.0,82,73,56,30.18,30.07,21,7,0,0.00
2013-3-1,34.0,29.7,26.0,25.0,22.5,19.0,81,75,66,30.27,30.15,16,6,0,0.00
2013-3-2,37.0,29.9,24.3,22.0,19.2,15.0,82,66,47,30.34,30.25,12,5,0,0.00
2013-3-3,50.0,38.8,27.6,30.0,23.9,17.0,71,56,42,30.27,29.93,8,1,0,0.00
2013-3-4,56.4,48.3,38.3,49.0,40.4,28.0,79,74,60,29.92,29.68,0,0,0,0.00
2013-3-5,53.9,41.0,34.1,47.0,27.5,18.0,80,61,37,30.28,29.76,30,5,0,0.01
2013-3-6,45.7,36.3,26.1,25.0,21.2,18.0,72,56,40,30.41,30.28,19,3,0,0.00
2013-3-7,51.9,43.1,34.5,34.0,29.8,23.0,75,60,45,30.36,30.24,14,4,0,0.00
2013-3-8,55.1,45.6,35.8,38.0,34.2,30.0,80,66,49,30.34,30.15,19,6,0,0.00
2013-3-9,62.9,54.7,45.5,55.0,45.5,36.0,77,71,61,30.14,29.76,18,5,0,0.03
2013-3-10,58.0,46.3,31.3,50.0,36.7,23.0,79,70,63,29.90,29.64,28,5,0,1.79
2013-3-11,43.3,34.6,26.6,30.0,24.9,21.0,82,69,49,30.10,29.89,21,4,0,0.00
2013-3-12,55.8,45.8,37.0,37.0,26.3,17.0,55,47,34,30.31,30.08,16,2,0,0.00
2013-3-13,52.0,43.2,35.1,23.0,19.1,17.0,52,39,25,30.45,30.31,9,2,0,0.00
2013-3-14,66.4,53.2,42.4,42.0,30.2,17.0,56,42,30,30.41,30.13,13,3,0,0.00
2013-3-15,76.3,64.9,55.9,50.0,45.7,42.0,64,51,34,30.15,29.82,12,2,0,0.00
2013-3-16,74.6,65.2,56.5,52.0,49.1,45.0,72,57,44,29.84,29.74,11,2,0,0.00
2013-3-17,64.7,47.5,39.7,51.0,38.1,30.0,77,70,59,29.82,29.66,17,6,0,0.02
2013-3-18,52.9,46.7,43.5,46.0,36.6,32.0,79,68,53,30.07,29.70,21,5,0,0.07
2013-3-19,51.2,46.4,38.7,33.0,26.8,19.0,72,48,31,30.22,30.03,20,8,0,0.00
2013-3-20,49.0,43.4,38.5,31.0,24.1,18.0,57,47,36,30.32,30.12,15,5,0,0.00
2013-3-21,37.9,33.0,29.4,27.0,18.5,13.0,78,56,42,30.12,29.86,24,8,0,0.00
2013-3-22,35.6,32.8,29.3,27.0,24.5,21.0,73,71,70,29.96,29.86,21,5,0,0.08
2013-3-23,39.2,37.0,34.6,31.0,29.1,27.0,73,73,73,29.95,29.73,20,12,0,0.20
2013-3-24,40.0,33.1,26.4,32.0,26.3,21.0,81,76,69,30.11,29.68,30,8,0,0.07
2013-3-25,33.5,28.8,25.1,23.0,20.9,19.0,81,73,63,30.37,30.10,24,10,0,0.00
2013-3-26,42.0,33.1,25.0,24.0,21.7,20.0,81,65,45,30.47,30.34,15,5,0,0.00
2013-3-27,55.2,45.0,35.2,33.0,25.4,19.0,64,47,33,30.39,30.22,13,3,0,0.00
2013-3-28,66.8,54.2,42.8,48.0,39.6,29.0,71,59,48,30.29,30.16,12,4,0,0.00
2013-3-29,58.0,54.4,49.7,48.0,44.1,38.0,76,68,63,30.18,30.11,14,3,0,0.33
2013-3-30,59.6,53.6,48.7,51.0,43.2,39.0,74,68,62,30.15,29.92,11,3,0,0.62
2013-3-31,60.9,56.1,51.5,52.0,46.2,40.0,77,70,62,29.96,29.86,12,2,0,0.18
2013-4-1,64.7,58.5,48.7,50.0,44.2,40.0,76,60,49,30.10,29.96,18,4,0,0.00
2013-4-2,49.0,39.0,31.6,41.0,29.8,23.0,79,70,59,30.21,30.10,29,17,0,0.43
2013-4-3,42.8,38.3,31.6,28.0,25.6,23.0,81,61,50,30.26,30.15,29,20,0,0.01
2013-4-4,47.6,41.3,35.5,37.0,30.6,25.0,79,67,52,30.19,30.08,21,9,0,0.30
2013-4-5,63.7,54.1,46.1,38.0,32.4,26.0,61,45,25,30.24,30.06,14,4,0,0.00
2013-4-6,70.6,60.3,51.5,48.0,42.9,35.0,67,54,39,30.05,29.84,18,5,0,0.00
2013-4-7,66.8,61.1,56.8,57.0,52.5,47.0,76,73,63,29.95,29.81,14,6,0,0.00
2013-4-8,72.7,63.5,57.2,59.0,53.3,44.0,76,70,60,29.87,29.75,19,5,0,0.00
2013-4-9,77.6,68.6,61.6,63.0,57.3,51.0,76,68,52,29.85,29.72,14,5,0,0.00
2013-4-10,73.2,59.1,37.0,64.0,49.0,28.0,75,70,61,29.79,29.62,30,7,0,1.19
2013-4-11,51.3,40.2,31.8,37.0,30.3,24.0,80,68,55,29.87,29.72,25,6,0,0.00
2013-4-12,60.2,51.0,41.9,39.0,34.2,32.0,69,54,38,30.02,29.86,11,2,0,0.00
2013-4-13,61.2,54.5,44.9,49.0,40.2,33.0,73,59,49,30.08,29.87,18,4,0,0.00
2013-4-14,73.9,64.4,56.4,55.0,50.0,47.0,76,61,42,29.88,29.59,14,4,0,0.00
2013-4-15,72.1,64.6,57.3,62.0,54.3,45.0,75,69,63,29.82,29.68,12,5,0,0.00
2013-4-16,81.4,73.0,66.3,66.0,61.0,53.0,74,67,57,29.95,29.80,12,4,0,0.00
2013-4-17,77.1,72.0,67.8,66.0,60.5,54.0,74,67,61,29.95,29.67,17,4,0,0.00
2013-4-18,72.2,53.2,37.8,64.0,44.4,30.0,79,72,63,29.93,29.56,21,7,0,0.50
2013-4-19,51.5,41.9,32.8,31.0,27.7,26.0,78,59,38,30.17,29.94,17,4,0,0.00
2013-4-20,64.8,54.4,45.6,40.0,33.3,26.0,58,46,33,30.26,30.12,10,2,0,0.00
2013-4-21,62.3,55.4,49.1,45.0,39.4,35.0,74,56,38,30.29,30.16,18,6,0,0.00
2013-4-22,69.8,59.6,48.4,46.0,41.1,36.0,64,52,35,30.22,29.95,11,3,0,0.00
2013-4-23,67.3,57.1,39.8,56.0,46.2,30.0,75,67,60,30.00,29.86,17,5,0,0.02
2013-4-24,52.7,43.2,34.4,36.0,31.3,26.0,80,64,47,30.33,29.98,9,2,0,0.56
2013-4-25,63.4,53.6,44.0,41.0,34.0,28.0,64,49,28,30.40,30.27,14,3,0,0.00
2013-4-26,55.3,50.6,47.0,45.0,39.3,36.0,75,66,52,30.29,30.16,21,8,0,0.27
2013-4-27,56.0,51.5,48.0,47.0,42.6,39.0,73,72,70,30.17,29.97,17,4,0,0.27
2013-4-28,67.7,55.9,47.8,56.0,47.0,39.0,76,72,62,30.03,29.93,12,2,0,0.00
2013-4-29,80.2,68.0,56.4,62.0,55.6,49.0,77,65,45,29.96,29.81,10,3,0,0.00
2013-4-30,78.6,70.3,62.7,59.0,52.7,44.0,71,55,32,29.88,29.81,11,3,0,0.00
2013-5-1,68.9,64.6,60.4,60.0,54.6,48.0,74,70,63,30.05,29.86,16,5,0,0.00
2013-5-2,60.9,54.5,38.4,48.0,42.9,29.0,70,65,61,30.12,30.01,14,3,0,0.59
2013-5-3,44.8,37.5,32.3,38.0,29.2,25.0,80,72,63,30.11,29.99,14,3,0,0.29
2013-5-4,43.9,38.7,36.2,37.0,30.6,27.0,79,73,66,30.00,29.90,14,1,0,0.00
2013-5-5,59.5,47.2,37.4,46.0,38.2,29.0,79,72,57,30.10,29.99,16,2,0,0.00
2013-5-6,64.9,56.0,47.8,54.0,46.5,37.0,76,71,62,30.05,29.96,20,3,0,0.00
2013-5-7,74.2,65.8,55.8,55.0,51.0,48.0,76,60,41,30.07,29.98,9,0,0,0.00
2013-5-8,78.6,69.3,61.5,59.0,55.2,52.0,72,62,46,30.04,29.92,9,2,0,0.00
2013-5-9,76.0,66.9,62.5,61.0,55.4,48.0,75,67,51,30.01,29.88,11,1,0,0.00
2013-5-10,74.1,65.2,57.6,62.0,53.8,45.0,75,67,59,30.00,29.88,5,0,0,0.00
2013-5-11,73.1,62.3,53.3,52.0,48.2,36.0,76,61,43,30.14,29.99,8,1,0,0.00
2013-5-12,66.1,57.8,49.8,41.0,35.4,32.0,57,44,33,30.24,30.14,15,3,0,0.00
2013-5-13,78.8,66.8,56.3,51.0,45.0,38.0,59,46,30,30.22,30.06,16,2,0,0.00
2013-5-14,85.9,74.4,64.9,59.0,52.2,46.0,57,47,32,30.09,29.96,22,2,0,0.00
2013-5-15,75.8,67.5,62.0,65.0,55.9,49.0,73,67,51,30.01,29.89,13,2,0,0.00
2013-5-16,64.6,60.7,57.9,54.0,49.8,46.0,70,67,63,29.91,29.84,11,1,0,0.00
2013-5-17,75.0,67.7,60.7,65.0,57.0,50.0,73,69,61,29.93,29.84,7,1,0,0.01
2013-5-18,80.5,73.1,68.4,70.0,60.6,53.0,71,65,58,29.93,29.83,12,1,0,0.00
2013-5-19,83.2,74.6,68.5,68.0,62.4,54.0,73,66,58,29.85,29.71,15,3,0,0.00
2013-5-20,79.1,72.1,61.0,69.0,61.8,46.0,73,70,59,29.89,29.71,13,2,0,0.00
2013-5-21,68.1,60.2,57.6,58.0,46.6,43.0,74,61,56,29.92,29.65,16,3,0,1.17
2013-5-22,75.8,64.6,55.8,64.0,52.5,41.0,74,65,58,29.94,29.81,11,1,0,0.01
2013-5-23,75.8,69.8,65.2,65.0,60.4,56.0,75,72,64,30.10,29.93,8,0,0,0.00
2013-5-24,66.3,61.6,55.1,57.0,51.4,43.0,75,70,63,30.26,30.09,21,10,0,0.00
2013-5-25,76.2,66.1,56.2,63.0,55.6,48.0,74,69,60,30.26,30.09,13,2,0,0.00
2013-5-26,79.3,70.7,64.0,68.0,60.3,52.0,74,70,64,30.13,30.00,7,1,0,0.00
2013-5-27,79.9,71.7,65.4,66.0,61.0,54.0,73,69,60,30.00,29.86,18,3,0,0.00
2013-5-28,80.3,72.7,66.9,67.0,61.9,56.0,73,69,60,29.93,29.80,10,2,0,0.00
2013-5-29,79.7,72.6,67.6,67.0,62.4,56.0,73,70,65,29.92,29.79,11,2,0,0.00
2013-5-30,75.1,69.4,66.0,65.0,57.8,53.0,72,67,62,29.86,29.77,12,3,0,0.07
2013-5-31,82.9,73.9,65.2,72.0,62.7,53.0,72,68,62,29.85,29.68,18,3,0,0.01
2013-6-1,75.2,65.0,61.1,62.0,53.1,48.0,74,66,62,29.95,29.76,14,1,0,0.37
2013-6-2,73.4,64.9,57.6,61.0,55.3,49.0,76,71,62,30.01,29.94,16,1,0,0.00
2013-6-3,71.5,63.6,54.3,60.0,53.8,43.0,75,71,62,30.03,29.93,13,1,0,0.00
2013-6-4,72.7,67.2,59.7,63.0,57.7,49.0,74,72,68,30.01,29.91,18,2,0,0.00
2013-6-5,78.2,70.6,66.5,67.0,61.4,57.0,74,73,67,29.98,29.77,13,1,0,0.00
2013-6-6,73.1,67.5,62.6,64.0,58.2,53.0,74,72,68,29.89,29.81,4,0,0,0.00
2013-6-7,75.1,67.6,61.4,58.0,55.1,53.0,75,65,49,29.94,29.86,5,0,0,0.00
2013-6-8,79.7,70.7,61.5,62.0,56.5,53.0,74,62,46,29.94,29.86,10,2,0,0.00
2013-6-9,79.1,70.9,65.4,68.0,59.4,54.0,74,67,53,29.92,29.82,11,2,0,0.00
2013-6-10,87.2,78.0,68.8,71.0,64.5,56.0,73,64,49,29.92,29.86,5,0,0,0.00
2013-6-11,90.4,81.2,72.9,73.0,68.5,64.0,73,66,49,29.99,29.89,12,1,0,0.00
2013-6-12,88.5,80.2,72.2,73.0,68.1,62.0,72,67,57,30.00,29.88,11,1,0,0.00
2013-7-1,78.0,73.9,68.0,61.0,56.3,52.0,73,55,41,29.98,29.92,12,4,0,0.00
2013-7-2,78.6,71.4,63.4,58.0,54.3,51.0,71,56,41,30.04,29.96,17,2,0,0.00
2013-7-3,78.6,71.2,62.6,57.0,53.0,48.0,74,54,35,30.09,29.99,10,2,0,0.00
2013-7-4,82.8,74.0,66.6,62.0,56.0,53.0,66,54,38,30.04,29.94,8,2,0,0.00
2013-7-5,83.9,77.0,70.3,62.0,56.8,52.0,66,50,39,30.02,29.92,8,1,0,0.00
2013-7-6,82.6,74.0,66.4,68.0,62.6,56.0,74,68,51,30.00,29.91,11,2,0,0.00
2013-7-7,86.1,78.6,70.5,69.0,65.5,61.0,74,65,49,30.03,29.95,12,2,0,0.00
2013-7-8,88.7,79.8,72.9,72.0,67.9,63.0,73,67,54,30.08,29.99,7,2,0,0.00
2013-7-9,91.5,82.3,73.6,72.0,67.8,64.0,73,62,47,30.07,29.95,10,2,0,0.00
2013-7-10,96.4,80.7,67.7,73.0,66.9,57.0,73,63,43,29.99,29.85,22,3,0,0.00
2013-7-11,87.3,80.0,72.5,75.0,68.0,63.0,75,67,46,29.96,29.89,8,1,0,0.00
2013-7-12,82.5,74.7,67.9,67.0,60.4,52.0,74,62,40,30.02,29.94,18,6,0,0.00
2013-7-13,80.1,73.7,67.0,61.0,58.2,55.0,68,59,50,30.03,29.94,11,3,0,0.00
2013-7-14,80.1,73.4,67.6,66.0,61.3,58.0,74,67,50,30.02,29.94,20,6,0,0.00
2013-7-15,83.7,74.8,67.0,69.0,63.8,57.0,74,69,57,30.14,30.00,19,7,0,0.00
2013-7-16,84.1,77.1,70.6,71.0,65.7,60.0,74,68,55,30.22,30.13,19,4,0,0.00
2013-7-17,86.1,79.4,71.7,70.0,66.3,61.0,74,65,53,30.27,30.14,18,2,0,0.00
2013-7-18,93.0,81.1,72.0,71.0,67.0,62.0,74,63,40,30.19,29.99,25,1,0,0.00
2013-7-19,87.1,75.0,69.9,72.0,64.9,60.0,74,71,55,30.02,29.91,8,1,0,0.00
2013-7-20,83.2,74.1,70.4,72.0,64.4,60.0,75,72,63,29.95,29.84,11,1,0,0.00
2013-7-21,85.6,77.6,71.3,72.0,67.1,61.0,74,70,62,29.93,29.83,11,1,0,0.00
2013-7-22,88.9,78.6,71.0,74.0,66.5,55.0,75,67,44,29.96,29.82,10,1,0,0.00
2013-7-23,94.6,80.0,67.0,75.0,68.7,58.0,74,69,52,29.91,29.77,12,2,0,0.00
2013-7-24,81.2,72.9,66.0,69.0,62.9,56.0,74,71,62,29.98,29.76,19,3,0,0.20
2013-7-25,78.5,73.4,68.6,68.0,63.9,59.0,75,72,68,30.07,29.97,7,1,0,0.20
2013-7-26,71.2,66.2,62.6,62.0,57.7,54.0,77,74,70,30.05,29.93,11,4,0,0.23
2013-7-27,82.2,70.9,62.2,68.0,60.5,55.0,78,70,54,30.02,29.93,6,1,0,0.23
2013-7-28,83.7,72.4,64.9,67.0,61.7,56.0,76,69,55,30.02,29.95,14,4,0,0.00
2013-7-29,82.7,73.1,63.6,72.0,63.4,54.0,74,72,70,30.08,30.00,9,1,0,0.00
2013-7-30,82.4,75.6,71.7,72.0,65.8,62.0,74,71,69,30.03,29.97,12,1,0,0.00
2013-7-31,88.7,77.3,69.9,77.0,67.1,60.0,74,71,64,30.03,29.92,12,1,0,0.03
2013-8-1,85.3,77.2,70.9,72.0,66.6,61.0,74,70,63,30.04,29.95,11,2,0,0.03
2013-8-2,84.9,76.5,68.9,75.0,66.6,59.0,74,71,69,29.99,29.89,12,2,0,0.00
2013-8-3,82.0,75.7,66.9,72.0,65.7,57.0,74,71,68,30.08,29.88,14,2,0,0.00
2013-8-4,81.4,74.5,69.1,72.0,65.0,59.0,74,72,69,30.10,30.00,17,2,0,0.02
2013-8-5,88.2,78.0,70.2,77.0,68.7,62.0,76,73,69,30.02,29.86,9,1,0,0.03
2013-8-6,87.0,81.5,76.2,76.0,71.5,67.0,73,71,67,29.90,29.79,11,2,0,0.00
2013-8-7,85.9,80.4,76.8,74.0,70.4,68.0,73,71,65,29.90,29.78,13,2,0,0.00
2013-8-8,89.4,78.2,69.1,76.0,67.2,59.0,74,69,63,29.92,29.80,16,1,0,0.07
2013-8-9,84.3,74.5,68.4,74.0,64.3,59.0,73,71,68,30.01,29.88,11,1,0,0.01
2013-8-10,81.0,74.2,69.6,71.0,64.2,59.0,73,71,68,30.06,29.96,15,2,0,0.00
2013-8-11,81.0,72.9,67.8,72.0,63.6,59.0,75,72,67,30.08,30.01,10,2,0,0.00
2013-8-12,86.5,75.3,69.2,75.0,64.2,58.0,72,68,66,30.03,29.93,9,1,0,0.00
2013-8-13,74.9,70.6,68.0,66.0,60.1,57.0,74,69,66,30.03,29.93,11,1,0,0.29
2013-8-14,72.5,67.5,62.1,61.0,56.8,53.0,76,69,61,30.10,29.99,20,8,0,0.29
2013-8-15,71.0,64.2,56.9,58.0,54.1,49.0,76,70,58,30.11,30.01,19,6,0,0.00
2013-8-16,67.7,63.6,60.5,59.0,55.3,53.0,76,74,71,30.09,30.03,9,2,0,0.00
2013-8-17,74.1,67.4,60.9,63.0,58.6,53.0,75,73,69,30.11,30.02,13,3,0,0.00
2013-8-18,75.3,69.3,64.0,66.0,59.8,54.0,74,71,69,30.12,30.04,11,2,0,0.00
2013-8-19,78.5,71.8,65.2,67.0,61.5,55.0,74,70,60,30.11,29.99,6,0,0,0.00
2013-8-20,81.0,74.3,68.1,68.0,63.6,59.0,74,70,59,30.08,30.00,7,0,0,0.00
2013-8-21,86.7,78.0,70.8,71.0,65.4,61.0,74,66,48,30.11,30.02,7,1,0,0.00
2013-8-22,87.2,80.0,72.2,72.0,67.6,62.0,73,66,49,30.08,29.97,10,2,0,0.00
2013-8-23,85.9,78.9,74.7,72.0,68.2,65.0,73,70,58,30.05,29.96,17,2,0,0.00
2013-8-24,84.1,78.3,72.6,72.0,67.9,63.0,73,70,63,30.12,30.01,18,4,0,0.00
2013-8-25,84.0,77.8,70.7,73.0,67.2,60.0,73,70,63,30.18,30.10,14,2,0,0.00
2013-8-26,84.3,77.5,71.0,71.0,66.3,61.0,73,68,60,30.20,30.08,8,1,0,0.00
2013-8-27,88.2,79.2,72.0,70.0,65.4,62.0,72,63,48,30.11,30.00,7,2,0,0.00
2013-8-28,89.6,80.6,72.5,72.0,67.1,63.0,73,64,49,30.06,29.98,14,2,0,0.00
2013-8-29,90.7,82.2,74.3,73.0,68.2,63.0,72,63,50,30.05,29.95,11,2,0,0.00
2013-8-30,91.0,83.2,76.7,74.0,69.3,66.0,71,63,49,29.98,29.85,11,2,0,0.00
2013-8-31,94.7,84.0,77.8,72.0,68.4,66.0,69,60,44,29.89,29.79,8,2,0,0.00
2013-9-1,90.8,80.3,70.5,73.0,67.7,60.0,74,66,53,29.86,29.75,13,2,0,0.02
2013-9-2,85.5,77.9,72.8,73.0,67.7,64.0,73,71,67,29.93,29.83,11,1,0,0.02
2013-9-3,84.0,75.6,68.9,67.0,62.9,60.0,73,65,50,30.01,29.92,20,4,0,0.00
2013-9-4,82.8,74.6,68.6,62.0,58.2,51.0,71,58,40,30.12,30.00,17,2,0,0.00
2013-9-5,82.5,74.1,66.1,65.0,60.6,57.0,75,64,46,30.16,30.06,14,2,0,0.00
2013-9-6,83.4,75.3,67.9,66.0,60.1,51.0,74,61,34,30.13,30.00,9,1,0,0.00
2013-9-7,91.8,80.9,70.8,71.0,64.5,62.0,74,59,39,30.03,29.91,4,0,0,0.00
2013-9-8,91.5,83.6,76.7,70.0,65.0,63.0,63,54,44,29.96,29.86,6,0,0,0.00
2013-9-9,93.2,84.4,77.6,72.0,63.8,61.0,66,51,38,29.98,29.89,7,1,0,0.00
2013-9-10,91.7,83.0,75.3,68.0,63.5,61.0,62,53,41,30.09,29.95,6,0,0,0.00
2013-9-11,89.5,80.0,74.6,71.0,66.5,64.0,73,64,46,30.10,30.02,13,1,0,0.00
2013-9-12,88.4,79.2,73.4,72.0,67.0,62.0,74,67,45,30.05,29.94,8,0,0,0.00
2013-9-13,78.9,71.7,64.2,65.0,57.7,52.0,75,62,47,30.02,29.92,21,8,0,0.00
2013-9-14,72.0,64.9,57.4,54.0,51.2,48.0,76,63,45,30.07,29.97,21,5,0,0.00
2013-9-15,82.7,71.0,59.1,60.0,53.6,47.0,68,55,41,30.08,30.02,0,0,0,0.00
2013-9-16,82.4,75.4,68.5,66.0,59.3,54.0,74,58,44,30.14,30.03,0,0,0,0.00
2013-9-17,81.1,71.8,62.0,66.0,60.2,54.0,77,68,56,30.13,29.99,0,0,0,0.00
2013-9-18,87.2,76.7,71.0,68.0,64.5,61.0,73,66,51,30.03,29.93,0,0,0,0.00
2013-9-19,83.4,76.3,71.7,72.0,66.6,63.0,74,72,66,30.01,29.88,0,0,0,0.00
2013-9-20,76.9,66.3,60.5,66.0,58.4,52.0,79,75,68,29.91,29.83,14,0,0,0.22
2013-9-21,71.3,63.6,55.9,54.0,49.0,43.0,78,61,39,29.98,29.88,13,4,0,0.22
2013-9-22,70.1,63.4,56.4,53.0,49.6,45.0,73,62,50,29.98,29.86,18,6,0,0.00
2013-9-23,71.9,64.4,55.5,56.0,53.2,49.0,78,68,54,29.93,29.83,18,4,0,0.00
2013-9-24,81.7,72.1,64.3,62.0,56.9,53.0,72,60,40,29.89,29.79,11,1,0,0.00
2013-9-25,76.8,68.8,60.6,61.0,57.6,53.0,77,68,56,29.85,29.78,13,1,0,0.00
2013-9-26,78.0,71.5,64.6,62.0,58.5,55.0,75,64,46,29.96,29.84,10,1,0,0.00
2013-9-27,79.4,72.9,63.9,63.0,60.4,55.0,76,66,51,30.02,29.92,14,1,0,0.00
2013-9-28,82.1,71.3,66.0,67.0,61.4,58.0,76,71,58,30.01,29.91,12,2,0,0.00
2013-9-29,70.9,66.6,64.2,63.0,58.6,56.0,78,75,72,29.99,29.91,7,0,0,0.01
2013-9-30,72.3,66.9,64.0,65.0,59.0,56.0,78,76,72,29.93,29.87,5,0,0,0.01
2013-10-1,79.1,71.3,68.1,70.0,62.9,60.0,77,75,71,30.00,29.89,3,0,0,0.00
2013-10-2,79.3,71.4,67.3,69.0,61.8,58.0,75,72,70,30.04,29.92,8,1,0,0.00
2013-10-3,79.4,71.9,66.8,69.0,62.4,57.0,75,72,69,29.97,29.86,11,2,0,0.02
2013-10-4,83.0,73.4,67.8,68.0,62.5,58.0,75,69,54,29.95,29.87,9,1,0,0.02
2013-10-5,77.0,64.7,48.9,68.0,55.2,41.0,75,71,68,29.99,29.86,20,2,0,0.00
2013-10-6,60.6,53.5,46.6,48.0,43.6,40.0,79,70,57,30.04,29.91,18,3,0,0.00
2013-10-7,66.1,58.5,49.5,49.0,45.5,43.0,78,63,48,30.13,30.01,14,2,0,0.00
2013-10-8,64.7,58.8,52.2,50.0,46.1,44.0,76,64,47,30.16,30.07,17,8,0,0.00
2013-10-9,70.3,61.8,53.3,52.0,49.2,44.0,76,64,52,30.14,30.05,15,1,0,0.00
2013-10-10,71.6,65.0,59.0,58.0,54.2,51.0,75,68,59,30.11,29.96,10,1,0,0.00
2013-10-11,75.4,65.7,59.5,64.0,56.7,51.0,75,73,66,30.00,29.89,10,2,0,0.00
2013-10-12,72.3,67.7,63.2,63.0,58.8,53.0,75,73,69,30.12,29.91,12,1,0,0.00
2013-10-13,69.9,64.5,59.9,57.0,54.3,51.0,76,70,62,30.28,30.11,19,9,0,0.00
2013-10-14,63.9,60.1,55.9,56.0,50.3,45.0,75,70,63,30.22,30.02,21,6,0,0.00
2013-10-15,64.2,62.2,58.0,55.0,53.7,50.0,76,74,70,30.02,29.90,11,1,0,1.31
2013-10-16,57.6,51.1,47.6,50.0,44.0,41.0,79,77,73,30.07,29.98,7,0,0,0.05
2013-10-17,61.7,53.6,45.7,48.0,43.9,38.0,79,70,58,30.08,29.99,7,0,0,0.05
2013-10-18,61.8,55.1,51.5,52.0,46.2,43.0,77,72,64,30.05,29.96,6,0,0,0.01
2013-10-19,54.5,48.0,40.7,43.0,38.8,34.0,80,71,58,30.12,29.98,9,2,0,0.01
2013-10-20,63.8,53.6,46.3,45.0,39.8,33.0,73,60,46,30.08,29.94,14,3,0,0.00
2013-10-21,63.3,53.4,45.8,53.0,45.4,39.0,78,75,66,30.07,29.98,9,1,0,0.01
2013-10-22,62.1,52.6,42.6,50.0,42.6,35.0,80,69,61,30.11,29.96,15,1,0,0.01
2013-10-23,61.4,53.1,44.7,46.0,41.5,36.0,78,66,41,30.16,30.04,11,1,0,0.00
2013-10-24,56.1,52.0,42.3,47.0,41.1,30.0,75,67,59,30.38,30.08,15,3,0,0.00
2013-10-25,47.8,42.1,35.7,32.0,29.1,27.0,71,61,47,30.52,30.31,18,7,0,0.00
2013-10-26,55.3,47.2,41.8,46.0,38.4,32.0,77,72,65,30.30,30.15,12,4,0,0.00
2013-11-26,41.6,33.8,28.8,33.0,24.2,-99.9,81,71,65,30.26,30.07,14,-10,0,0.01
2013-11-27,34.2,27.6,20.2,20.0,13.7,12.0,77,57,41,30.43,30.26,14,4,0,0.01
2013-11-28,47.2,37.0,27.8,26.0,20.2,13.0,62,51,40,30.49,30.38,8,1,0,0.00
2013-11-29,50.2,44.0,39.7,33.0,28.2,25.0,64,54,44,30.54,30.36,17,2,0,0.00
2013-11-30,52.1,45.0,39.2,42.0,35.1,29.0,78,69,60,30.36,30.19,15,3,0,0.00
2013-12-1,55.0,51.4,46.9,48.0,43.8,40.0,77,75,69,30.18,29.90,11,2,0,0.00
2013-12-2,58.0,53.6,51.3,50.0,44.7,41.0,76,72,68,29.89,29.68,7,1,0,0.00
2013-12-3,52.7,50.8,49.2,45.0,42.2,40.0,75,72,68,29.69,29.58,15,3,0,0.03
2013-12-4,65.4,54.7,44.5,55.0,46.4,38.0,79,74,63,29.85,29.61,14,3,0,0.04
2013-12-5,43.9,31.9,27.5,37.0,24.6,20.0,81,75,73,30.20,29.84,19,4,0,0.00
2013-12-6,29.3,22.0,18.3,22.0,15.6,13.0,79,76,74,30.53,30.14,0,0,0,0.00
2013-12-7,20.6,16.2,12.1,14.0,9.5,-99.9,82,79,77,30.65,30.35,0,-15,0,0.00
2013-12-8,24.8,19.3,17.7,18.0,13.5,12.0,79,78,75,30.35,30.17,0,0,0,0.00
2013-12-9,24.3,22.7,22.5,18.0,10.9,-99.9,77,72,75,30.36,30.32,0,-53,0,0.00
2013-12-10,31.5,25.2,18.0,24.0,18.5,13.0,79,76,74,30.50,30.34,0,0,0,0.00
2013-12-11,33.3,29.6,25.9,27.0,23.2,20.0,82,77,74,30.63,30.37,0,0,0,0.00
2013-12-12,36.0,28.8,21.4,29.0,22.5,15.0,82,77,71,30.66,30.38,0,0,0,0.00
2013-12-13,34.2,32.4,31.1,27.0,25.1,24.0,80,74,69,30.38,29.91,10,0,0,52.46
2013-12-14,35.1,32.2,27.2,29.0,25.3,20.0,77,75,73,30.24,29.86,19,7,0,0.11
2013-12-15,44.0,35.0,25.2,33.0,27.0,20.0,82,73,64,30.34,30.21,18,4,0,0.09
2013-12-16,58.2,48.2,39.5,38.0,33.5,31.0,72,58,45,30.22,30.12,11,2,0,0.09
2013-12-17,57.5,51.8,46.9,37.0,32.4,21.0,63,49,32,30.30,30.15,14,3,0,0.00
2013-12-18,51.9,44.5,40.3,36.0,26.8,17.0,61,51,27,30.29,30.19,12,5,0,0.00
2013-12-21,51.6,47.2,41.0,44.0,39.6,34.0,77,75,71,29.71,29.49,14,3,0,0.09
2013-12-22,42.7,30.9,26.4,35.0,24.1,21.0,83,76,73,30.34,29.71,20,4,0,0.10
2013-12-23,31.3,26.9,24.1,25.0,22.0,19.0,83,81,77,30.58,30.35,12,3,0,0.00
2013-12-24,31.5,25.7,20.8,23.0,19.8,14.0,83,78,71,30.61,30.40,14,4,0,0.00
2013-12-25,42.9,34.9,26.8,33.0,28.5,22.0,82,78,69,30.42,30.35,15,4,0,0.00
2013-12-26,44.3,38.6,34.0,32.0,29.5,26.0,80,70,58,30.46,30.37,9,3,0,0.00
2013-12-27,51.5,44.5,38.5,36.0,31.2,28.0,73,60,42,30.47,30.34,11,3,0,0.00
2013-12-28,45.2,43.0,39.3,35.0,31.4,28.0,77,64,52,30.34,29.97,17,5,0,0.00
2013-12-29,47.4,38.7,24.6,38.0,31.1,20.0,81,74,66,30.22,29.97,14,4,0,0.00
2013-12-30,27.8,25.1,22.2,22.0,20.0,17.0,82,81,78,30.41,30.21,15,3,0,0.00
2013-12-31,45.9,39.2,26.8,29.0,25.9,20.0,81,60,49,30.46,30.23,24,7,0,0.00
2014-1-1,50.4,40.3,32.4,38.0,31.5,24.0,79,71,58,30.22,29.96,18,6,0,0.00
2014-1-2,42.1,25.3,16.8,34.0,16.6,8.0,82,70,56,30.49,29.99,26,10,0,0.00